Bookmark and Share
Track history (hours):
 

Westrac

More information available from US FCC via Universal Licensing System and Coast Guard Vessel Documentation Center.

Last reported at 2014-Apr-22 23:40 UTC. Time now 2014-Apr-23 06:46 UTC.
Position N 47°34' W 122°21'.

Length 23 m; draft 5 m.

Type: Tug. MMSI: 366993010.

NotesDate/timePositionNaut miles runAvg speedWind from/ knotsBaromVisibWave heightAir tempDewpointWater temp
2014-Apr-22 23:40N 47°34' W 122°21'1 9.7
2014-Apr-22 23:33N 47°33' W 122°20'0 0.0
2014-Apr-22 23:25N 47°33' W 122°20'3 3.7
2014-Apr-22 22:33N 47°36' W 122°21'0 1.1
2014-Apr-22 22:30N 47°36' W 122°21'1 0.8
2014-Apr-22 21:32N 47°35' W 122°21'1 0.7
2014-Apr-22 20:30N 47°35' W 122°23'0 0.0
2014-Apr-22 19:33N 47°35' W 122°23'0 0.0
2014-Apr-22 19:24N 47°35' W 122°23'2 1.9
2014-Apr-22 18:29N 47°34' W 122°21'2 1.7
2014-Apr-22 17:33N 47°35' W 122°22'3 3.9
2014-Apr-22 16:49N 47°33' W 122°20'0 0.5
2014-Apr-22 16:33N 47°33' W 122°20'0 0.2
2014-Apr-22 16:29N 47°33' W 122°20'2 2.4
2014-Apr-22 15:33N 47°35' W 122°22'0 3.3
2014-Apr-22 15:29N 47°35' W 122°22'0 0.2
2014-Apr-22 14:33N 47°35' W 122°21'0 1.5
2014-Apr-22 14:29N 47°35' W 122°22'1 0.1
2014-Apr-21 19:38N 47°34' W 122°21'1 8.6
2014-Apr-21 19:34N 47°33' W 122°21'0 0.0
2014-Apr-21 19:33N 47°33' W 122°21'1 0.6
2014-Apr-21 18:33N 47°33' W 122°20'0 0.9
2014-Apr-21 18:33N 47°33' W 122°20'2 1.8
2014-Apr-21 17:33N 47°34' W 122°21'0 6.4
2014-Apr-21 17:33N 47°35' W 122°22'1 1.2
2014-Apr-21 16:33N 47°35' W 122°20'0 0.0
2014-Apr-21 16:33N 47°35' W 122°20'3 2.9
2014-Apr-21 15:33N 47°38' W 122°23'0 0.3
2014-Apr-21 15:32N 47°38' W 122°23'0 0.0
2014-Apr-21 14:33N 47°38' W 122°23'0 4.3
2014-Apr-21 14:32N 47°38' W 122°23'3 2.7
2014-Apr-21 13:33N 47°35' W 122°22'0 4.4
2014-Apr-21 13:32N 47°35' W 122°22'1 1.3
2014-Apr-21 12:33N 47°34' W 122°21'0 0.0
2014-Apr-21 12:32N 47°34' W 122°21'0 0.0
2014-Apr-20 22:51N 47°34' W 122°21'1 4.9
2014-Apr-20 22:33N 47°35' W 122°22'0 0.4
2014-Apr-20 22:31N 47°35' W 122°22'3 2.7
2014-Apr-20 21:33N 47°33' W 122°20'0 0.2
2014-Apr-20 21:31N 47°33' W 122°20'3 2.8
2014-Apr-20 20:33N 47°36' W 122°22'0 5.2
2014-Apr-20 20:31N 47°36' W 122°22'1 0.2
2014-Apr-20 13:29N 47°34' W 122°21'0 2.9
2014-Apr-20 13:25N 47°34' W 122°21'0 0.0
2014-Apr-19 18:51N 47°34' W 122°21'2 5.1
2014-Apr-19 18:33N 47°33' W 122°20'0 0.0
2014-Apr-19 18:31N 47°33' W 122°20'2 1.6
2014-Apr-19 17:33N 47°34' W 122°21'0 0.0
2014-Apr-19 17:32N 47°34' W 122°21'0 0.0
2014-Apr-19 08:46N 47°34' W 122°21'0 1.0
2014-Apr-19 08:33N 47°34' W 122°21'0 1.0
2014-Apr-19 08:31N 47°34' W 122°21'1 0.9
2014-Apr-19 07:33N 47°35' W 122°22'0 7.7
2014-Apr-19 07:31N 47°35' W 122°22'1 0.8
2014-Apr-19 06:33N 47°35' W 122°22'0 0.3
2014-Apr-19 06:31N 47°35' W 122°22'2 2.5
2014-Apr-19 05:51N 47°34' W 122°21'2 5.1
2014-Apr-19 05:33N 47°33' W 122°20'0 0.3
2014-Apr-19 04:33N 47°33' W 122°20'0 5.3
2014-Apr-19 04:31N 47°33' W 122°21'2 1.6
2014-Apr-19 03:33N 47°35' W 122°22'0 3.0
2014-Apr-19 03:31N 47°35' W 122°22'1 1.3
2014-Apr-19 02:33N 47°34' W 122°21'0 7.3
2014-Apr-19 02:31N 47°33' W 122°21'2 2.4
2014-Apr-19 01:33N 47°35' W 122°22'0 0.3
2014-Apr-19 01:30N 47°35' W 122°22'1 1.5
2014-Apr-19 00:33N 47°34' W 122°21'0 0.0
2014-Apr-19 00:30N 47°34' W 122°21'0 0.0
2014-Apr-18 23:33N 47°34' W 122°21'0 0.0
2014-Apr-18 23:30N 47°34' W 122°21'0 0.0
2014-Apr-18 22:33N 47°34' W 122°21'0 0.0
2014-Apr-18 22:30N 47°34' W 122°21'1 1.5
2014-Apr-18 21:33N 47°33' W 122°20'0 0.0
2014-Apr-18 21:30N 47°33' W 122°20'0 0.0
2014-Apr-18 20:33N 47°33' W 122°20'0 0.0
2014-Apr-18 20:30N 47°33' W 122°20'3 3.2
2014-Apr-18 19:33N 47°36' W 122°22'0 7.4
2014-Apr-18 19:30N 47°35' W 122°22'1 1.2
2014-Apr-18 18:33N 47°34' W 122°21'0 0.0
2014-Apr-18 18:29N 47°34' W 122°21'0 0.0
2014-Apr-18 17:33N 47°34' W 122°21'0 0.2
2014-Apr-18 17:30N 47°34' W 122°21'0 0.0
2014-Apr-18 16:33N 47°34' W 122°21'0 0.1
2014-Apr-18 16:29N 47°34' W 122°21'1 1.4
2014-Apr-18 15:33N 47°35' W 122°21'0 0.6
2014-Apr-18 15:30N 47°35' W 122°21'1 1.4
2014-Apr-18 14:33N 47°35' W 122°23'0 0.1
2014-Apr-18 14:30N 47°35' W 122°23'0 0.1
2014-Apr-18 13:33N 47°35' W 122°22'0 0.0
2014-Apr-18 13:30N 47°35' W 122°22'3 2.8
2014-Apr-18 12:33N 47°33' W 122°21'0 0.1
2014-Apr-18 12:29N 47°33' W 122°21'1 0.1
2014-Apr-18 00:39N 47°34' W 122°21'1 7.8
2014-Apr-18 00:33N 47°35' W 122°22'0 5.9
2014-Apr-18 00:29N 47°35' W 122°21'0 0.5
2014-Apr-17 23:34N 47°36' W 122°22'0 0.0
2014-Apr-17 23:33N 47°36' W 122°22'2 2.5
2014-Apr-17 22:34N 47°33' W 122°20'0 7.2
2014-Apr-17 22:33N 47°33' W 122°20'2 1.9
2014-Apr-17 21:34N 47°35' W 122°22'017.3
2014-Apr-17 21:33N 47°35' W 122°22'0 0.5
2014-Apr-17 20:34N 47°35' W 122°22'0 4.3
2014-Apr-17 20:33N 47°35' W 122°22'2 2.2
2014-Apr-17 19:34N 47°33' W 122°21'0 0.0
2014-Apr-17 19:33N 47°33' W 122°21'1 0.9
2014-Apr-17 18:33N 47°34' W 122°21'0 0.0
2014-Apr-17 18:33N 47°34' W 122°21'0 0.1
2014-Apr-17 17:33N 47°34' W 122°21'0 0.8
2014-Apr-17 17:30N 47°34' W 122°21'1 1.5
2014-Apr-17 16:33N 47°35' W 122°21'0 1.6
2014-Apr-17 16:30N 47°35' W 122°21'1 0.7
2014-Apr-17 15:33N 47°35' W 122°21'0 0.0
2014-Apr-17 15:30N 47°35' W 122°21'0 0.0
2014-Apr-17 14:33N 47°35' W 122°21'0 8.4
2014-Apr-17 14:30N 47°35' W 122°22'2 1.6
2014-Apr-17 13:33N 47°33' W 122°21'0 0.1
2014-Apr-17 13:30N 47°33' W 122°21'1 0.1
2014-Apr-17 01:34N 47°34' W 122°21'0 6.5
2014-Apr-17 01:33N 47°34' W 122°21'0 3.5
2014-Apr-17 01:28N 47°34' W 122°21'1 1.5
2014-Apr-17 00:34N 47°33' W 122°20'0 0.5
2014-Apr-17 00:33N 47°33' W 122°20'4 3.8
2014-Apr-16 23:34N 47°36' W 122°23'0 3.8
2014-Apr-16 23:33N 47°36' W 122°23'4 3.9
2014-Apr-16 22:33N 47°33' W 122°20'0 4.9
2014-Apr-16 22:29N 47°33' W 122°21'0 0.0
2014-Apr-16 21:33N 47°33' W 122°21'0 0.0
2014-Apr-16 21:33N 47°33' W 122°21'2 1.9
2014-Apr-16 20:33N 47°35' W 122°22'1 0.6
2014-Apr-16 19:33N 47°34' W 122°21'0 0.0
2014-Apr-16 19:33N 47°34' W 122°21'2 2.1
2014-Apr-16 18:33N 47°33' W 122°20'0 0.0
2014-Apr-16 18:33N 47°33' W 122°20'3 2.9
2014-Apr-16 17:33N 47°35' W 122°22'0 6.5
2014-Apr-16 17:33N 47°35' W 122°22'5 4.9
2014-Apr-16 16:33N 47°34' W 122°29'016.9
2014-Apr-16 16:33N 47°34' W 122°29'3 2.7
2014-Apr-16 15:32N 47°35' W 122°25'0 0.0
2014-Apr-16 15:32N 47°35' W 122°25'3 3.2
2014-Apr-16 14:33N 47°34' W 122°21'0 8.5
2014-Apr-16 14:33N 47°34' W 122°21'2 1.6
2014-Apr-16 13:33N 47°36' W 122°22'0 1.1
2014-Apr-16 13:33N 47°36' W 122°22'2 1.7
2014-Apr-16 12:33N 47°34' W 122°21'0 0.3
2014-Apr-16 12:32N 47°34' W 122°21'0 0.0
2014-Apr-16 11:33N 47°34' W 122°21'0 0.3
2014-Apr-16 11:32N 47°34' W 122°21'0 0.0
2014-Apr-16 10:33N 47°34' W 122°21'0 0.0
2014-Apr-16 10:33N 47°34' W 122°21'0 0.0
2014-Apr-16 09:33N 47°34' W 122°21'0 0.0
2014-Apr-16 09:33N 47°34' W 122°21'0 0.0
2014-Apr-16 08:33N 47°34' W 122°21'0 0.0
2014-Apr-16 08:33N 47°34' W 122°21'0 0.0
2014-Apr-16 07:33N 47°34' W 122°21'0 0.0
2014-Apr-16 07:33N 47°34' W 122°21'0 0.0
2014-Apr-16 06:33N 47°34' W 122°21'0 0.0
2014-Apr-16 06:32N 47°34' W 122°21'0 0.5
2014-Apr-16 05:47N 47°34' W 122°21'1 2.9
2014-Apr-16 05:33N 47°33' W 122°21'4 3.7
2014-Apr-16 04:33N 47°36' W 122°25'0 7.3
2014-Apr-16 04:32N 47°36' W 122°25'5 5.0
2014-Apr-16 03:33N 47°33' W 122°31'0 7.7
2014-Apr-16 03:32N 47°33' W 122°31'7 7.1
2014-Apr-16 02:33N 47°34' W 122°21'0 0.0
2014-Apr-16 02:32N 47°34' W 122°21'0 0.0
2014-Apr-16 01:33N 47°34' W 122°21'0 0.3
2014-Apr-16 01:32N 47°34' W 122°21'0 0.0
2014-Apr-16 00:33N 47°34' W 122°21'0 0.4
2014-Apr-16 00:32N 47°34' W 122°21'0 0.0
2014-Apr-15 23:33N 47°34' W 122°21'0 0.3
2014-Apr-15 23:32N 47°34' W 122°21'0 0.0
2014-Apr-15 22:33N 47°34' W 122°21'0 0.0
2014-Apr-15 22:32N 47°34' W 122°21'0 0.0
2014-Apr-15 21:33N 47°34' W 122°21'0 0.0
2014-Apr-15 21:32N 47°34' W 122°21'0 0.0
2014-Apr-15 20:33N 47°34' W 122°21'0 0.0
2014-Apr-15 20:32N 47°34' W 122°21'0 0.0
2014-Apr-15 19:33N 47°34' W 122°21'0 0.3
2014-Apr-15 19:32N 47°34' W 122°21'0 0.0
2014-Apr-15 18:33N 47°34' W 122°21'0 0.3
2014-Apr-15 18:32N 47°34' W 122°21'0 0.0
2014-Apr-15 17:33N 47°34' W 122°21'0 0.2
2014-Apr-15 17:32N 47°34' W 122°21'5 5.0
2014-Apr-15 16:33N 47°34' W 122°28'0 9.0
2014-Apr-15 16:32N 47°34' W 122°28'3 2.7
2014-Apr-15 15:33N 47°33' W 122°32'1 7.7
2014-Apr-15 15:27N 47°33' W 122°31'6 7.0
2014-Apr-15 14:33N 47°35' W 122°22'0 8.4
2014-Apr-15 14:32N 47°35' W 122°22'1 0.8
2014-Apr-15 13:32N 47°34' W 122°21'0 0.0
2014-Apr-15 12:34N 47°34' W 122°21'0 0.0
2014-Apr-14 15:32N 47°34' W 122°21'0 0.3
2014-Apr-14 14:34N 47°34' W 122°21'1 4.4
2014-Apr-14 14:16N 47°35' W 122°22'1 1.3
2014-Apr-14 13:33N 47°35' W 122°22'117.8
2014-Apr-14 13:31N 47°34' W 122°21'0 0.0
2014-Apr-14 12:30N 47°34' W 122°21'0 0.0
2014-Apr-14 11:34N 47°34' W 122°21'0 0.1
2014-Apr-14 11:30N 47°34' W 122°21'0 0.0
2014-Apr-14 10:34N 47°34' W 122°21'0 0.0
2014-Apr-14 10:31N 47°34' W 122°21'0 0.0
2014-Apr-14 09:33N 47°34' W 122°21'0 0.1
2014-Apr-14 09:30N 47°34' W 122°21'0 0.0
2014-Apr-14 08:34N 47°34' W 122°21'0 0.0
2014-Apr-14 08:30N 47°34' W 122°21'0 0.0
2014-Apr-14 07:33N 47°34' W 122°21'0 0.0
2014-Apr-14 07:30N 47°34' W 122°21'0 0.0
2014-Apr-14 06:33N 47°34' W 122°21'0 0.1
2014-Apr-14 06:30N 47°34' W 122°21'1 1.0
2014-Apr-14 05:50N 47°35' W 122°22'1 2.5
2014-Apr-14 05:33N 47°34' W 122°21'0 0.2
2014-Apr-14 04:25N 47°34' W 122°21'0 0.2
2014-Apr-14 03:30N 47°34' W 122°21'1 0.9
2014-Apr-14 02:28N 47°33' W 122°21'4 4.0
2014-Apr-14 01:28N 47°37' W 122°23'3 1.1
2014-Apr-13 22:33N 47°34' W 122°21'1 1.1
2014-Apr-13 21:33N 47°33' W 122°20'3 2.6
2014-Apr-13 20:33N 47°35' W 122°22'2 0.1
2014-Apr-13 00:17N 47°34' W 122°21'  

Dump ship's entire track history

sailing weather and tide predictions

Westrac — WTH4325 — position and weather